createdAt,value
2023-03-30T00:01:10.864Z,99.90
2023-03-30T00:03:43.136Z,99.90
2023-03-30T00:06:11.449Z,99.90
2023-03-30T00:08:38.757Z,99.90
2023-03-30T00:11:13.768Z,99.90
2023-03-30T00:13:41.599Z,99.90
2023-03-30T00:16:12.759Z,99.90
2023-03-30T00:18:40.675Z,99.90
2023-03-30T00:21:10.201Z,99.90
2023-03-30T00:23:38.326Z,99.90
2023-03-30T00:26:05.702Z,99.90
2023-03-30T00:28:32.579Z,99.90
2023-03-30T00:30:59.880Z,99.90
2023-03-30T00:33:41.431Z,99.90
2023-03-30T00:36:11.492Z,99.90
2023-03-30T00:38:38.458Z,99.90
2023-03-30T00:41:05.596Z,99.90
2023-03-30T00:43:33.688Z,99.90
2023-03-30T00:46:01.276Z,99.90
2023-03-30T00:48:36.790Z,99.90
2023-03-30T00:51:09.765Z,99.90
2023-03-30T00:53:47.945Z,99.90
2023-03-30T00:56:19.428Z,99.90
2023-03-30T00:58:46.894Z,99.90
2023-03-30T01:01:18.933Z,99.90
2023-03-30T01:03:48.174Z,99.90
2023-03-30T01:06:22.086Z,99.90
2023-03-30T01:08:49.865Z,99.90
2023-03-30T01:11:16.791Z,99.90
2023-03-30T01:13:47.853Z,99.90
2023-03-30T01:16:40.968Z,99.90
2023-03-30T01:19:11.568Z,99.90
2023-03-30T01:22:16.610Z,99.90
2023-03-30T01:24:58.682Z,99.90
2023-03-30T01:27:50.165Z,99.90
2023-03-30T01:30:42.782Z,99.90
2023-03-30T01:33:51.180Z,99.90
2023-03-30T01:36:31.255Z,99.90
2023-03-30T01:39:09.572Z,99.90
2023-03-30T01:41:42.372Z,99.90
2023-03-30T01:44:34.269Z,99.90
2023-03-30T01:47:17.660Z,99.90
2023-03-30T01:49:55.078Z,99.90
2023-03-30T01:52:32.118Z,99.90
2023-03-30T01:55:04.868Z,99.90
2023-03-30T01:57:41.297Z,99.90
2023-03-30T02:00:17.818Z,99.90
2023-03-30T02:02:52.762Z,99.90
2023-03-30T02:05:21.020Z,99.90
2023-03-30T02:07:53.080Z,99.90
2023-03-30T02:10:24.582Z,99.90
2023-03-30T02:12:52.877Z,99.90
2023-03-30T02:15:20.630Z,99.90
2023-03-30T02:17:48.421Z,99.90
2023-03-30T02:20:17.711Z,99.90
2023-03-30T02:22:45.905Z,99.90
2023-03-30T02:25:14.034Z,99.90
2023-03-30T02:27:42.188Z,99.90
2023-03-30T02:30:09.982Z,99.90
2023-03-30T02:32:47.381Z,99.90
2023-03-30T02:35:43.357Z,99.90
2023-03-30T02:38:32.341Z,99.90
2023-03-30T02:41:29.376Z,99.90
2023-03-30T02:44:05.123Z,99.90
2023-03-30T02:46:55.410Z,99.90
2023-03-30T02:49:55.432Z,99.90
2023-03-30T02:52:47.382Z,99.90
2023-03-30T02:55:22.639Z,99.90
2023-03-30T02:58:08.137Z,99.90
2023-03-30T03:00:52.361Z,99.90
2023-03-30T03:03:25.469Z,99.90
2023-03-30T03:05:54.051Z,99.90
2023-03-30T03:08:25.228Z,99.90
2023-03-30T03:10:52.296Z,99.90
2023-03-30T03:13:20.974Z,99.90
2023-03-30T03:15:49.589Z,99.90
2023-03-30T03:18:16.760Z,99.40
2023-03-30T03:20:43.603Z,99.10
2023-03-30T03:23:10.521Z,99.00
2023-03-30T03:25:37.370Z,98.70
2023-03-30T03:28:04.537Z,98.40
2023-03-30T03:30:31.732Z,98.10
2023-03-30T03:32:58.647Z,98.40
2023-03-30T03:35:25.668Z,98.50
2023-03-30T03:37:52.478Z,98.70
2023-03-30T03:40:19.306Z,98.90
2023-03-30T03:42:46.166Z,98.70
2023-03-30T03:45:13.013Z,98.80
2023-03-30T03:47:40.287Z,98.90
2023-03-30T03:50:09.882Z,99.00
2023-03-30T03:52:37.219Z,99.20
2023-03-30T03:55:05.232Z,99.30
2023-03-30T03:57:32.039Z,99.30
2023-03-30T03:59:59.923Z,99.20
2023-03-30T04:02:28.117Z,99.00
2023-03-30T04:04:55.736Z,98.90
2023-03-30T04:07:25.484Z,99.10
2023-03-30T04:09:52.438Z,99.50
2023-03-30T04:12:20.316Z,99.50
2023-03-30T04:14:47.139Z,99.80
2023-03-30T04:17:14.854Z,99.70
2023-03-30T04:19:42.062Z,99.60
2023-03-30T04:22:09.063Z,99.50
2023-03-30T04:24:35.897Z,99.50
2023-03-30T04:27:03.399Z,99.70
2023-03-30T04:29:30.862Z,99.90
2023-03-30T04:32:02.741Z,99.90
2023-03-30T04:34:31.087Z,99.90
2023-03-30T04:36:58.188Z,99.90
2023-03-30T04:39:30.341Z,99.90
2023-03-30T04:41:57.425Z,99.90
2023-03-30T04:44:24.216Z,99.90
2023-03-30T04:46:51.123Z,99.90
2023-03-30T04:49:17.901Z,99.90
2023-03-30T04:51:44.832Z,99.90
2023-03-30T04:54:11.710Z,99.90
2023-03-30T04:56:38.545Z,99.90
2023-03-30T04:59:05.767Z,99.90
2023-03-30T05:01:32.736Z,99.90
2023-03-30T05:03:59.543Z,99.90
2023-03-30T05:06:27.239Z,99.90
2023-03-30T05:08:54.122Z,99.90
2023-03-30T05:11:21.114Z,99.90
2023-03-30T05:13:50.645Z,99.90
2023-03-30T05:16:17.471Z,99.90
2023-03-30T05:18:44.658Z,99.90
2023-03-30T05:21:11.721Z,99.90
2023-03-30T05:23:39.831Z,99.90
2023-03-30T05:26:07.439Z,99.90
2023-03-30T05:28:34.790Z,99.90
2023-03-30T05:33:28.866Z,99.90
2023-03-30T05:35:55.745Z,99.90
2023-03-30T05:38:22.774Z,99.90
2023-03-30T05:40:53.707Z,99.90
2023-03-30T05:43:21.113Z,99.90
2023-03-30T05:45:48.351Z,99.90
2023-03-30T05:48:15.286Z,99.90
2023-03-30T05:50:42.955Z,99.90
2023-03-30T05:53:10.350Z,99.90
2023-03-30T05:55:37.566Z,99.90
2023-03-30T05:58:04.398Z,99.90
2023-03-30T06:00:33.422Z,99.90
2023-03-30T06:03:00.816Z,99.90
2023-03-30T06:05:27.800Z,99.90
2023-03-30T06:07:54.580Z,99.90
2023-03-30T06:10:21.437Z,99.90
2023-03-30T06:12:48.242Z,99.90
2023-03-30T06:15:15.359Z,99.90
2023-03-30T06:17:42.816Z,99.90
2023-03-30T06:20:11.658Z,99.90
2023-03-30T06:22:41.610Z,99.90
2023-03-30T06:25:09.778Z,99.90
2023-03-30T06:27:37.326Z,99.90
2023-03-30T06:30:04.743Z,99.90
2023-03-30T06:32:31.771Z,99.90
2023-03-30T06:34:58.623Z,99.90
2023-03-30T06:37:25.603Z,99.90
2023-03-30T06:39:52.788Z,99.90
2023-03-30T06:42:19.647Z,99.90
2023-03-30T06:44:48.128Z,99.90
2023-03-30T06:47:16.713Z,99.90
2023-03-30T06:49:43.604Z,99.90
2023-03-30T06:52:11.487Z,99.90
2023-03-30T06:54:38.517Z,99.70
2023-03-30T06:57:05.490Z,99.50
2023-03-30T06:59:34.575Z,99.50
2023-03-30T07:02:03.247Z,99.60
2023-03-30T07:04:30.039Z,99.30
2023-03-30T07:06:57.887Z,99.20
2023-03-30T07:09:25.833Z,98.90
2023-03-30T07:11:55.080Z,98.50
2023-03-30T07:14:23.288Z,98.50
2023-03-30T07:16:51.308Z,98.10
2023-03-30T07:19:18.389Z,98.30
2023-03-30T07:21:45.557Z,98.50
2023-03-30T07:24:12.877Z,98.00
2023-03-30T07:26:39.910Z,98.30
2023-03-30T07:29:07.488Z,98.10
2023-03-30T07:31:37.800Z,97.90
2023-03-30T07:34:04.973Z,97.70
2023-03-30T07:36:31.878Z,97.30
2023-03-30T07:38:59.836Z,96.40
2023-03-30T07:41:26.792Z,96.70
2023-03-30T07:43:53.607Z,96.90
2023-03-30T07:46:20.661Z,96.30
2023-03-30T07:48:47.524Z,95.50
2023-03-30T07:51:14.668Z,95.30
2023-03-30T07:53:42.141Z,95.50
2023-03-30T07:56:09.212Z,94.10
2023-03-30T07:58:37.265Z,92.40
2023-03-30T08:01:05.126Z,91.00
2023-03-30T08:03:33.102Z,90.80
2023-03-30T08:06:04.490Z,91.80
2023-03-30T08:08:35.121Z,92.10
2023-03-30T08:11:02.463Z,92.80
2023-03-30T08:13:29.589Z,92.50
2023-03-30T08:15:56.515Z,92.10
2023-03-30T08:18:23.323Z,91.50
2023-03-30T08:20:52.611Z,91.20
2023-03-30T08:23:20.451Z,90.10
2023-03-30T08:25:51.410Z,90.00
2023-03-30T08:28:20.015Z,90.00
2023-03-30T08:30:47.311Z,90.80
2023-03-30T08:33:16.001Z,91.00
2023-03-30T08:35:47.681Z,91.10
2023-03-30T08:38:19.162Z,91.80
2023-03-30T08:40:49.379Z,91.20
2023-03-30T08:43:23.822Z,91.30
2023-03-30T08:45:52.345Z,92.30
2023-03-30T08:48:22.930Z,91.00
2023-03-30T08:51:06.187Z,91.70
2023-03-30T08:53:34.375Z,91.50
2023-03-30T08:56:01.177Z,92.20
2023-03-30T08:59:19.237Z,91.30
2023-03-30T09:01:51.536Z,91.40
2023-03-30T09:04:27.064Z,91.10
2023-03-30T09:07:04.171Z,89.80
2023-03-30T09:09:35.094Z,90.20
2023-03-30T09:12:19.580Z,90.20
2023-03-30T09:14:53.957Z,90.80
2023-03-30T09:17:48.267Z,90.50
2023-03-30T09:20:24.498Z,90.40
2023-03-30T09:22:53.469Z,90.40
2023-03-30T09:25:48.124Z,89.70
2023-03-30T09:28:54.763Z,82.20
2023-03-30T09:31:44.379Z,77.50
2023-03-30T09:34:27.525Z,72.80
2023-03-30T09:37:18.743Z,70.20
2023-03-30T09:39:47.058Z,67.10
2023-03-30T09:42:34.087Z,68.50
2023-03-30T09:45:28.073Z,66.60
2023-03-30T09:47:55.016Z,65.80
2023-03-30T09:50:26.820Z,62.50
2023-03-30T09:53:00.450Z,62.60
2023-03-30T09:55:31.263Z,64.60
2023-03-30T09:58:30.465Z,67.20
2023-03-30T10:01:12.839Z,71.70
2023-03-30T10:03:42.047Z,78.20
2023-03-30T10:06:17.387Z,84.20
2023-03-30T10:08:52.231Z,86.20
2023-03-30T10:11:37.563Z,90.40
2023-03-30T10:14:05.458Z,92.40
2023-03-30T10:16:33.378Z,94.20
2023-03-30T10:19:18.533Z,95.30
2023-03-30T10:21:48.584Z,95.20
2023-03-30T10:24:15.398Z,95.30
2023-03-30T10:26:46.500Z,95.90
2023-03-30T10:29:23.215Z,95.40
2023-03-30T10:32:02.229Z,94.90
2023-03-30T10:34:36.324Z,95.40
2023-03-30T10:37:06.935Z,93.20
2023-03-30T10:39:35.237Z,96.60
2023-03-30T10:42:05.163Z,99.40
2023-03-30T10:44:41.465Z,99.90
2023-03-30T10:47:43.630Z,99.90
2023-03-30T10:50:41.876Z,99.90
2023-03-30T10:53:39.109Z,99.90
2023-03-30T10:56:38.967Z,99.90
2023-03-30T10:59:12.026Z,99.90
2023-03-30T11:01:48.279Z,99.90
2023-03-30T11:04:36.296Z,99.90
2023-03-30T11:07:10.698Z,99.90
2023-03-30T11:09:41.417Z,99.90
2023-03-30T11:12:16.706Z,99.90
2023-03-30T11:14:49.337Z,99.90
2023-03-30T11:17:48.827Z,99.90
2023-03-30T11:20:28.350Z,99.90
2023-03-30T11:23:23.337Z,99.90
2023-03-30T11:26:12.747Z,99.90
2023-03-30T11:28:42.680Z,99.90
2023-03-30T11:31:28.247Z,99.90
2023-03-30T11:34:13.194Z,99.90
2023-03-30T11:36:44.213Z,99.90
2023-03-30T11:39:31.627Z,99.90
2023-03-30T11:42:26.773Z,99.90
2023-03-30T11:44:57.796Z,97.90
2023-03-30T11:47:33.060Z,92.90
2023-03-30T11:50:30.269Z,88.00
2023-03-30T11:53:30.806Z,82.50
2023-03-30T11:56:39.673Z,78.50
2023-03-30T11:59:28.232Z,87.30
2023-03-30T12:02:17.147Z,93.00
2023-03-30T12:04:58.202Z,95.00
2023-03-30T12:07:31.199Z,97.60
2023-03-30T12:10:08.408Z,96.90
2023-03-30T12:12:39.455Z,98.40
2023-03-30T12:15:26.461Z,98.30
2023-03-30T12:17:55.780Z,99.00
2023-03-30T12:20:34.687Z,99.90
2023-03-30T12:23:13.938Z,99.90
2023-03-30T12:25:43.537Z,99.90
2023-03-30T12:28:11.227Z,99.90
2023-03-30T12:31:00.181Z,99.90
2023-03-30T12:33:35.037Z,99.00
2023-03-30T12:36:04.638Z,98.10
2023-03-30T12:38:46.811Z,97.60
2023-03-30T12:41:20.731Z,97.80
2023-03-30T12:44:09.140Z,97.30
2023-03-30T12:46:42.084Z,97.40
2023-03-30T12:49:21.973Z,95.30
2023-03-30T12:52:09.686Z,97.20
2023-03-30T12:54:49.522Z,94.80
2023-03-30T12:57:47.196Z,95.00
2023-03-30T13:00:36.538Z,95.00
2023-03-30T13:03:33.222Z,93.40
2023-03-30T13:06:01.684Z,92.60
2023-03-30T13:08:36.524Z,92.10
2023-03-30T13:11:14.152Z,91.80
2023-03-30T13:13:55.083Z,91.40
2023-03-30T13:16:53.270Z,90.70
2023-03-30T13:19:33.888Z,90.80
2023-03-30T13:22:14.946Z,87.00
2023-03-30T13:24:55.922Z,86.20
2023-03-30T13:27:43.141Z,83.80
2023-03-30T13:30:10.263Z,81.40
2023-03-30T13:32:46.199Z,79.60
2023-03-30T13:35:46.803Z,82.20
2023-03-30T13:38:50.437Z,84.10
2023-03-30T13:41:40.931Z,80.80
2023-03-30T13:44:27.893Z,81.60
2023-03-30T13:47:19.285Z,80.90
2023-03-30T13:50:00.274Z,79.80
2023-03-30T13:52:40.764Z,82.50
2023-03-30T13:55:25.992Z,83.00
2023-03-30T13:57:59.408Z,82.90
2023-03-30T14:00:47.217Z,83.60
2023-03-30T14:03:38.604Z,86.60
2023-03-30T14:06:15.310Z,88.40
2023-03-30T14:08:45.377Z,88.50
2023-03-30T14:11:28.262Z,90.10
2023-03-30T14:13:55.730Z,90.20
2023-03-30T14:16:42.984Z,90.90
2023-03-30T14:19:18.885Z,91.90
2023-03-30T14:21:47.648Z,91.60
2023-03-30T14:24:20.277Z,94.20
2023-03-30T14:26:48.311Z,95.50
2023-03-30T14:29:30.456Z,97.90
2023-03-30T14:34:34.441Z,99.90
2023-03-30T14:37:05.422Z,99.90
2023-03-30T14:39:38.699Z,99.90
2023-03-30T14:42:16.363Z,99.90
2023-03-30T14:44:44.701Z,99.90
2023-03-30T14:47:11.860Z,99.90
2023-03-30T14:49:40.506Z,99.90
2023-03-30T14:52:23.473Z,99.90
2023-03-30T14:55:04.263Z,99.90
2023-03-30T14:57:37.903Z,99.90
2023-03-30T15:00:21.339Z,99.90
2023-03-30T15:02:57.924Z,99.90
2023-03-30T15:05:30.252Z,99.90
2023-03-30T15:07:57.190Z,98.70
2023-03-30T15:10:44.220Z,99.00
2023-03-30T15:13:31.506Z,99.40
2023-03-30T15:16:00.499Z,99.10
2023-03-30T15:18:30.469Z,97.50
2023-03-30T15:20:58.675Z,97.70
2023-03-30T15:23:31.210Z,97.90
2023-03-30T15:26:01.554Z,97.50
2023-03-30T15:28:32.918Z,97.20
2023-03-30T15:30:59.977Z,96.90
2023-03-30T15:33:36.671Z,96.20
2023-03-30T15:36:18.462Z,97.60
2023-03-30T15:38:48.278Z,98.60
2023-03-30T15:41:16.727Z,99.90
2023-03-30T15:43:58.699Z,99.90
2023-03-30T15:46:28.087Z,99.90
2023-03-30T15:48:57.724Z,99.90
2023-03-30T15:51:33.227Z,99.90
2023-03-30T15:54:04.423Z,99.90
2023-03-30T15:56:39.450Z,99.90
2023-03-30T15:59:14.220Z,99.90
2023-03-30T16:01:56.181Z,99.90
2023-03-30T16:04:24.955Z,99.90
2023-03-30T16:06:52.828Z,99.90
2023-03-30T16:09:19.766Z,99.90
2023-03-30T16:11:47.027Z,99.90
2023-03-30T16:14:17.957Z,99.90
2023-03-30T16:16:44.999Z,99.90
2023-03-30T16:19:13.400Z,99.90
2023-03-30T16:21:40.877Z,99.90
2023-03-30T16:24:08.537Z,99.90
2023-03-30T16:26:35.454Z,99.90
2023-03-30T16:29:03.680Z,99.90
2023-03-30T16:31:30.877Z,99.90
2023-03-30T16:33:57.641Z,99.90
2023-03-30T16:36:24.856Z,99.90
2023-03-30T16:38:51.868Z,99.90
2023-03-30T16:41:21.077Z,99.70
2023-03-30T16:43:48.728Z,99.70
2023-03-30T16:46:18.104Z,98.80
2023-03-30T16:48:46.373Z,98.50
2023-03-30T16:51:15.451Z,98.70
2023-03-30T16:53:42.758Z,99.10
2023-03-30T16:56:17.561Z,98.50
2023-03-30T16:58:44.949Z,98.40
2023-03-30T17:01:15.983Z,97.60
2023-03-30T17:03:42.863Z,96.90
2023-03-30T17:06:09.834Z,97.50
2023-03-30T17:08:36.711Z,96.60
2023-03-30T17:11:04.939Z,97.00
2023-03-30T17:13:32.280Z,97.20
2023-03-30T17:16:01.190Z,96.50
2023-03-30T17:18:28.892Z,95.90
2023-03-30T17:21:00.414Z,96.30
2023-03-30T17:23:29.847Z,96.30
2023-03-30T17:25:58.303Z,96.00
2023-03-30T17:28:27.579Z,96.40
2023-03-30T17:30:57.355Z,96.30
2023-03-30T17:33:24.576Z,96.40
2023-03-30T17:36:16.464Z,96.20
2023-03-30T17:38:43.931Z,96.60
2023-03-30T17:41:12.737Z,96.60
2023-03-30T17:43:40.518Z,96.80
2023-03-30T17:46:07.861Z,97.20
2023-03-30T17:48:34.795Z,97.20
2023-03-30T17:51:02.111Z,97.00
2023-03-30T17:53:28.912Z,97.50
2023-03-30T17:55:55.828Z,97.70
2023-03-30T17:58:34.199Z,96.90
2023-03-30T18:01:03.584Z,96.40
2023-03-30T18:03:31.455Z,95.30
2023-03-30T18:06:00.690Z,95.10
2023-03-30T18:08:30.470Z,95.50
2023-03-30T18:10:59.209Z,95.70
2023-03-30T18:13:28.457Z,95.80
2023-03-30T18:15:58.460Z,96.60
2023-03-30T18:18:29.322Z,96.70
2023-03-30T18:21:02.624Z,96.60
2023-03-30T18:23:31.501Z,96.90
2023-03-30T18:25:58.489Z,96.90
2023-03-30T18:28:26.952Z,96.70
2023-03-30T18:30:57.581Z,97.30
2023-03-30T18:33:25.306Z,97.20
2023-03-30T18:35:53.647Z,97.30
2023-03-30T18:38:21.858Z,97.20
2023-03-30T18:40:52.135Z,96.90
2023-03-30T18:43:19.195Z,96.60
2023-03-30T18:45:48.652Z,96.50
2023-03-30T18:48:17.998Z,96.40
2023-03-30T18:50:46.694Z,96.70
2023-03-30T18:53:19.384Z,96.90
2023-03-30T18:55:49.150Z,97.30
2023-03-30T18:58:23.261Z,97.70
2023-03-30T19:00:51.796Z,97.70
2023-03-30T19:03:20.479Z,97.90
2023-03-30T19:05:47.804Z,98.10
2023-03-30T19:08:23.685Z,98.10
2023-03-30T19:10:55.227Z,98.40
2023-03-30T19:13:23.279Z,98.40
2023-03-30T19:15:51.284Z,98.40
2023-03-30T19:18:19.098Z,98.10
2023-03-30T19:20:47.311Z,98.30
2023-03-30T19:23:16.247Z,98.70
2023-03-30T19:25:44.312Z,98.80
2023-03-30T19:28:12.270Z,98.80
2023-03-30T19:30:40.158Z,99.00
2023-03-30T19:33:12.127Z,99.20
2023-03-30T19:35:44.548Z,99.00
2023-03-30T19:38:11.645Z,98.90
2023-03-30T19:40:39.820Z,99.10
2023-03-30T19:43:07.742Z,99.40
2023-03-30T19:45:34.991Z,99.40
2023-03-30T19:48:02.217Z,99.50
2023-03-30T19:50:30.472Z,99.50
2023-03-30T19:52:58.026Z,99.70
2023-03-30T19:55:25.720Z,99.60
2023-03-30T19:57:52.619Z,99.60
2023-03-30T20:00:19.751Z,99.80
2023-03-30T20:02:50.165Z,99.90
2023-03-30T20:05:18.605Z,99.90
2023-03-30T20:07:47.109Z,99.90
2023-03-30T20:10:24.603Z,99.90
2023-03-30T20:12:52.687Z,99.90
2023-03-30T20:15:21.920Z,99.90
2023-03-30T20:17:48.851Z,99.90
2023-03-30T20:20:23.690Z,99.90
2023-03-30T20:22:53.619Z,99.90
2023-03-30T20:25:22.136Z,99.90
2023-03-30T20:27:49.520Z,99.90
2023-03-30T20:30:17.021Z,99.90
2023-03-30T20:32:46.732Z,99.90
2023-03-30T20:35:20.531Z,99.90
2023-03-30T20:37:47.432Z,99.90
2023-03-30T20:40:14.472Z,99.90
2023-03-30T20:42:44.500Z,99.90
2023-03-30T20:45:13.854Z,99.90
2023-03-30T20:47:40.805Z,99.90
2023-03-30T20:50:07.937Z,99.90
2023-03-30T20:52:35.020Z,99.90
2023-03-30T20:55:01.915Z,99.90
2023-03-30T20:57:28.826Z,99.90
2023-03-30T20:59:55.966Z,99.90
2023-03-30T21:02:22.796Z,99.90
2023-03-30T21:04:50.550Z,99.90
2023-03-30T21:07:18.059Z,99.90
2023-03-30T21:09:45.440Z,99.90
2023-03-30T21:12:12.324Z,99.90
2023-03-30T21:14:39.190Z,99.90
2023-03-30T21:17:06.239Z,99.90
2023-03-30T21:19:33.318Z,99.90
2023-03-30T21:22:01.135Z,99.90
2023-03-30T21:24:28.434Z,99.90
2023-03-30T21:26:55.585Z,99.90
2023-03-30T21:29:23.158Z,99.90
2023-03-30T21:31:50.843Z,99.90
2023-03-30T21:34:18.923Z,99.90
2023-03-30T21:36:46.330Z,99.90
2023-03-30T21:39:13.251Z,99.90
2023-03-30T21:41:40.071Z,99.90
2023-03-30T21:44:07.733Z,99.90
2023-03-30T21:46:34.752Z,99.90
2023-03-30T21:49:01.611Z,99.90
2023-03-30T21:51:30.395Z,99.90
2023-03-30T21:53:57.817Z,99.90
2023-03-30T21:56:27.623Z,99.90
2023-03-30T21:58:54.790Z,99.90
2023-03-30T22:01:25.897Z,99.90
2023-03-30T22:03:55.536Z,99.90
2023-03-30T22:06:23.419Z,99.90
2023-03-30T22:08:50.706Z,99.90
2023-03-30T22:11:20.282Z,99.90
2023-03-30T22:13:48.581Z,99.90
2023-03-30T22:16:28.405Z,99.90
2023-03-30T22:18:55.601Z,99.90
2023-03-30T22:21:24.790Z,99.90
2023-03-30T22:23:54.652Z,99.90
2023-03-30T22:26:22.384Z,99.90
2023-03-30T22:28:49.301Z,99.90
2023-03-30T22:31:18.293Z,99.90
2023-03-30T22:33:45.742Z,99.90
2023-03-30T22:36:22.289Z,99.90
2023-03-30T22:38:50.971Z,99.90
2023-03-30T22:41:23.694Z,99.90
2023-03-30T22:43:52.517Z,99.90
2023-03-30T22:46:19.464Z,99.90
2023-03-30T22:48:46.279Z,99.90
2023-03-30T22:51:23.431Z,99.90
2023-03-30T22:53:50.549Z,99.90
2023-03-30T22:56:17.421Z,99.90
2023-03-30T22:58:44.268Z,99.90
2023-03-30T23:01:12.168Z,99.90
2023-03-30T23:03:39.241Z,99.90
2023-03-30T23:06:06.705Z,99.90
2023-03-30T23:08:34.041Z,99.90
2023-03-30T23:11:09.732Z,99.90
2023-03-30T23:13:37.565Z,99.90
2023-03-30T23:16:09.102Z,99.90
2023-03-30T23:18:36.290Z,99.90
2023-03-30T23:21:06.820Z,99.90
2023-03-30T23:23:35.839Z,99.90
2023-03-30T23:26:08.941Z,99.90
2023-03-30T23:28:41.757Z,99.90
2023-03-30T23:31:14.265Z,99.90
2023-03-30T23:33:41.927Z,99.90
2023-03-30T23:36:10.241Z,99.90
2023-03-30T23:38:37.630Z,99.90
2023-03-30T23:41:04.637Z,99.90
2023-03-30T23:43:31.636Z,99.90
2023-03-30T23:45:58.660Z,99.90
2023-03-30T23:48:25.685Z,99.90
2023-03-30T23:50:52.471Z,99.90
2023-03-30T23:53:19.875Z,99.90
2023-03-30T23:55:50.142Z,99.90
2023-03-30T23:58:18.246Z,99.90
